Marion, IN

7:10 AM EDT on October 23, 2014 (GMT -0400)
Delaware County-Johnson | Change Station
CLOSE
Current Station
Airport
Location: Muncie,
Elevation: 938 ft
Nearby Weather Stations
Active Advisory: Dense Fog Advisory

Elev 938 ft 40.23 °N, 85.39 °W | Updated 17 minutes ago

Fog
Fog
33 °F
Feels Like 33 °F
N
0
Wind Variable Wind from North

Today
High -- | Low -- °F
--% Chance of Precip.
Yesterday
High -- | Low -- °F
Precip. -- in
8:02 AM 6:50 PM
Waning Crescent, 0% visible
Pressure 30.27 in
Visibility 7.0 miles
Clouds Clear
Dew Point 31 °F
Humidity 92%
Rainfall 0.00 in
Snow Depth Not available.
UV 0 out of 12
Pollen .80 out of 12
Air Quality Not available.
Flu Activity Sporadic
METAR KMIE 231053Z 00000KT 7SM CLR 01/M01 A3026 RMK AO2 SLP249 I1002 T00061006

More Conditions Fewer Conditions

Pressure 30.27 in
Visibility 7.0 miles
Clouds Clear
Dew Point 31 °F
Humidity 92%
Rainfall 0.00 in
Snow Depth Not available.
UV 0 out of 12
Pollen .80 out of 12
Air Quality Not available.
Flu Activity Sporadic
METAR KMIE 231053Z 00000KT 7SM CLR 01/M01 A3026 RMK AO2 SLP249 I1002 T00061006

More Conditions Fewer Conditions

10-Day Weather Forecast

Almanac

Astronomy

Oct. 23, 2014 Rise Set
Actual Time 8:02 AM EDT 6:50 PM EDT
Civil Twilight 7:34 AM EDT 7:18 PM EDT
Nautical Twilight 7:02 AM EDT 7:50 PM EDT
Astronomical Twilight 6:31 AM EDT 8:22 PM EDT
Moon 7:41 AM EDT 6:52 PM EDT
Length of Visible Light 11h 44m
Length of Day
10h 48m
Tomorrow will be 2m 29s shorter.
Waning Crescent, 0% of the Moon is Illuminated
Today
Waning Crescent
Oct 23
New
Oct 30
First Quarter
Nov 6
Full
Nov 14
Last Quarter

Today's Extremes

State Highs State Lows

Community

WunderPhotos

Upload Photos

1,764,204 photos uploaded!

Nearby

Snow Depth

Station Depth Elevation
No new snow has been reported.

Earthquake Activity

City Distance Mag. Time & Date
No recent earthquake activity has been reported nearby.
Minimum magnitude displayed is 2.5.

Coastal Water Temperatures

Place Temperature
No Stations Reporting

Nearby Weather Stations